PWSweather.com
Personal Weather Stations
Station Observations
KOHAVON11
Long Road Station, Avon, OH 44011

Long Road StationAvon, OH 44011

Lat: 41.437, Lon: -82.0477

Elevation: 686

Station Type: Davis Vantage Pro2

http://www.avon-weather.com

High Low Average
Temperature 28.5°F-1.9°C 14.1°F-9.9°C 21.5°F-5.8°C
Dew Point 15.3°F-9.3°C 5.2°F-14.9°C 10.4°F-12.0°C
Winds 21.0 mph 33.8 kmh 3.0 mph 4.8 kmh 7.0 mph SW11.3 kmh SW
Wind Gusts 26.0 mph41.8 kmh 8.0 mph12.9 kmh 18.0 mph29.0 kmh
Humidity 70% 57% 62%
Pressure 30.30 in1026.1 mb 30.07 in1018.3 mb -
Precipitation 0.00 in0.0 mm - -
Hour Temp Dew Point Humidity Winds Wind Gusts Pressure Precip Precip Rate Daily Precip Total
12:03 AM 14.7°F-9.6°C 7.0°F-13.9°C 71% 4.0 mph SW6.4 kmh SW 10.0 mph16.1 kmh 30.33 in1027.1 mb 0.00 in0.0 mm 0.00 in0.0 mm 0.00 in0.0 mm
12:08 AM 14.7°F-9.6°C 7.0°F-13.9°C 71% 4.0 mph SW6.4 kmh SW 10.0 mph16.1 kmh 30.33 in1027.1 mb 0.00 in0.0 mm 0.00 in0.0 mm 0.00 in0.0 mm
12:13 AM 14.8°F-9.6°C 7.1°F-13.8°C 71% 6.0 mph SW9.7 kmh SW 10.0 mph16.1 kmh 30.33 in1027.1 mb 0.00 in0.0 mm 0.00 in0.0 mm 0.00 in0.0 mm
12:18 AM 15.0°F-9.4°C 7.3°F-13.7°C 71% 5.0 mph SW8.0 kmh SW 11.0 mph17.7 kmh 30.32 in1026.8 mb 0.00 in0.0 mm 0.00 in0.0 mm 0.00 in0.0 mm
12:23 AM 15.1°F-9.4°C 7.4°F-13.7°C 71% 7.0 mph SW11.3 kmh SW 19.0 mph30.6 kmh 30.32 in1026.8 mb 0.00 in0.0 mm 0.00 in0.0 mm 0.00 in0.0 mm
12:28 AM 15.2°F-9.3°C 7.5°F-13.6°C 71% 6.0 mph SSW9.7 kmh SSW 19.0 mph30.6 kmh 30.32 in1026.8 mb 0.00 in0.0 mm 0.00 in0.0 mm 0.00 in0.0 mm
12:33 AM 15.3°F-9.3°C 7.6°F-13.6°C 71% 5.0 mph SW8.0 kmh SW 19.0 mph30.6 kmh 30.32 in1026.8 mb 0.00 in0.0 mm 0.00 in0.0 mm 0.00 in0.0 mm
12:38 AM 15.3°F-9.3°C 7.6°F-13.6°C 71% 5.0 mph SW8.0 kmh SW 19.0 mph30.6 kmh 30.32 in1026.8 mb 0.00 in0.0 mm 0.00 in0.0 mm 0.00 in0.0 mm
12:43 AM 15.5°F-9.2°C 7.4°F-13.7°C 70% 9.0 mph SW14.5 kmh SW 19.0 mph30.6 kmh 30.31 in1026.4 mb 0.00 in0.0 mm 0.00 in0.0 mm 0.00 in0.0 mm
12:48 AM 15.6°F-9.1°C 7.5°F-13.6°C 70% 6.0 mph WSW9.7 kmh WSW 19.0 mph30.6 kmh 30.31 in1026.4 mb 0.00 in0.0 mm 0.00 in0.0 mm 0.00 in0.0 mm
12:53 AM 15.6°F-9.1°C 7.5°F-13.6°C 70% 5.0 mph SSW8.0 kmh SSW 19.0 mph30.6 kmh 30.30 in1026.1 mb 0.00 in0.0 mm 0.00 in0.0 mm 0.00 in0.0 mm
12:58 AM 15.7°F-9.1°C 7.6°F-13.6°C 70% 6.0 mph SW9.7 kmh SW 19.0 mph30.6 kmh 30.30 in1026.1 mb 0.00 in0.0 mm 0.00 in0.0 mm 0.00 in0.0 mm
01:03 AM 15.8°F-9.0°C 7.7°F-13.5°C 70% 5.0 mph SW8.0 kmh SW 13.0 mph20.9 kmh 30.30 in1026.1 mb 0.00 in0.0 mm 0.00 in0.0 mm 0.00 in0.0 mm
01:08 AM 15.8°F-9.0°C 7.7°F-13.5°C 70% 5.0 mph SW8.0 kmh SW 13.0 mph20.9 kmh 30.30 in1026.1 mb 0.00 in0.0 mm 0.00 in0.0 mm 0.00 in0.0 mm
01:13 AM 16.0°F-8.9°C 7.6°F-13.6°C 69% 9.0 mph SSW14.5 kmh SSW 12.0 mph19.3 kmh 30.30 in1026.1 mb 0.00 in0.0 mm 0.00 in0.0 mm 0.00 in0.0 mm
01:18 AM 16.0°F-8.9°C 7.6°F-13.6°C 69% 5.0 mph SW8.0 kmh SW 12.0 mph19.3 kmh 30.30 in1026.1 mb 0.00 in0.0 mm 0.00 in0.0 mm 0.00 in0.0 mm
01:23 AM 16.1°F-8.8°C 7.7°F-13.5°C 69% 10.0 mph SW16.1 kmh SW 13.0 mph20.9 kmh 30.29 in1025.7 mb 0.00 in0.0 mm 0.00 in0.0 mm 0.00 in0.0 mm
01:28 AM 16.1°F-8.8°C 7.7°F-13.5°C 69% 7.0 mph WSW11.3 kmh WSW 13.0 mph20.9 kmh 30.29 in1025.7 mb 0.00 in0.0 mm 0.00 in0.0 mm 0.00 in0.0 mm
01:33 AM 16.1°F-8.8°C 7.7°F-13.5°C 69% 5.0 mph SW8.0 kmh SW 13.0 mph20.9 kmh 30.29 in1025.7 mb 0.00 in0.0 mm 0.00 in0.0 mm 0.00 in0.0 mm
01:38 AM 16.1°F-8.8°C 7.7°F-13.5°C 69% 7.0 mph SW11.3 kmh SW 13.0 mph20.9 kmh 30.29 in1025.7 mb 0.00 in0.0 mm 0.00 in0.0 mm 0.00 in0.0 mm
01:43 AM 16.0°F-8.9°C 7.6°F-13.6°C 69% 5.0 mph SSW8.0 kmh SSW 12.0 mph19.3 kmh 30.28 in1025.4 mb 0.00 in0.0 mm 0.00 in0.0 mm 0.00 in0.0 mm
01:48 AM 16.0°F-8.9°C 7.6°F-13.6°C 69% 6.0 mph SW9.7 kmh SW 19.0 mph30.6 kmh 30.28 in1025.4 mb 0.00 in0.0 mm 0.00 in0.0 mm 0.00 in0.0 mm
01:53 AM 16.0°F-8.9°C 7.6°F-13.6°C 69% 4.0 mph WSW6.4 kmh WSW 19.0 mph30.6 kmh 30.27 in1025.1 mb 0.00 in0.0 mm 0.00 in0.0 mm 0.00 in0.0 mm
01:58 AM 16.0°F-8.9°C 7.6°F-13.6°C 69% 5.0 mph SSW8.0 kmh SSW 19.0 mph30.6 kmh 30.27 in1025.1 mb 0.00 in0.0 mm 0.00 in0.0 mm 0.00 in0.0 mm
02:03 AM 16.0°F-8.9°C 7.3°F-13.7°C 68% 8.0 mph S12.9 kmh S 19.0 mph30.6 kmh 30.27 in1025.1 mb 0.00 in0.0 mm 0.00 in0.0 mm 0.00 in0.0 mm
02:08 AM 16.0°F-8.9°C 7.3°F-13.7°C 68% 6.0 mph SW9.7 kmh SW 17.0 mph27.4 kmh 30.27 in1025.1 mb 0.00 in0.0 mm 0.00 in0.0 mm 0.00 in0.0 mm
02:13 AM 15.9°F-8.9°C 7.2°F-13.8°C 68% 5.0 mph SW8.0 kmh SW 17.0 mph27.4 kmh 30.27 in1025.1 mb 0.00 in0.0 mm 0.00 in0.0 mm 0.00 in0.0 mm
02:18 AM 16.0°F-8.9°C 7.3°F-13.7°C 68% 8.0 mph SW12.9 kmh SW 13.0 mph20.9 kmh 30.26 in1024.7 mb 0.00 in0.0 mm 0.00 in0.0 mm 0.00 in0.0 mm
02:23 AM 16.0°F-8.9°C 7.3°F-13.7°C 68% 8.0 mph W12.9 kmh W 14.0 mph22.5 kmh 30.25 in1024.4 mb 0.00 in0.0 mm 0.00 in0.0 mm 0.00 in0.0 mm
02:28 AM 16.1°F-8.8°C 7.3°F-13.7°C 68% 6.0 mph SSW9.7 kmh SSW 15.0 mph24.1 kmh 30.25 in1024.4 mb 0.00 in0.0 mm 0.00 in0.0 mm 0.00 in0.0 mm
02:33 AM 16.2°F-8.8°C 7.1°F-13.8°C 67% 6.0 mph SW9.7 kmh SW 20.0 mph32.2 kmh 30.25 in1024.4 mb 0.00 in0.0 mm 0.00 in0.0 mm 0.00 in0.0 mm
02:38 AM 16.2°F-8.8°C 7.1°F-13.8°C 67% 10.0 mph SW16.1 kmh SW 24.0 mph38.6 kmh 30.25 in1024.4 mb 0.00 in0.0 mm 0.00 in0.0 mm 0.00 in0.0 mm
02:43 AM 16.3°F-8.7°C 7.2°F-13.8°C 67% 7.0 mph SSW11.3 kmh SSW 24.0 mph38.6 kmh 30.25 in1024.4 mb 0.00 in0.0 mm 0.00 in0.0 mm 0.00 in0.0 mm
02:48 AM 16.4°F-8.7°C 7.3°F-13.7°C 67% 8.0 mph SSW12.9 kmh SSW 24.0 mph38.6 kmh 30.25 in1024.4 mb 0.00 in0.0 mm 0.00 in0.0 mm 0.00 in0.0 mm
02:53 AM 16.5°F-8.6°C 7.1°F-13.8°C 66% 7.0 mph SW11.3 kmh SW 24.0 mph38.6 kmh 30.25 in1024.4 mb 0.00 in0.0 mm 0.00 in0.0 mm 0.00 in0.0 mm
02:58 AM 16.5°F-8.6°C 7.1°F-13.8°C 66% 8.0 mph WSW12.9 kmh WSW 20.0 mph32.2 kmh 30.25 in1024.4 mb 0.00 in0.0 mm 0.00 in0.0 mm 0.00 in0.0 mm
03:03 AM 16.5°F-8.6°C 7.1°F-13.8°C 66% 6.0 mph SW9.7 kmh SW 20.0 mph32.2 kmh 30.25 in1024.4 mb 0.00 in0.0 mm 0.00 in0.0 mm 0.00 in0.0 mm
03:08 AM 16.4°F-8.7°C 7.0°F-13.9°C 66% 4.0 mph SW6.4 kmh SW 14.0 mph22.5 kmh 30.25 in1024.4 mb 0.00 in0.0 mm 0.00 in0.0 mm 0.00 in0.0 mm
03:13 AM 16.3°F-8.7°C 6.9°F-13.9°C 66% 6.0 mph SW9.7 kmh SW 14.0 mph22.5 kmh 30.25 in1024.4 mb 0.00 in0.0 mm 0.00 in0.0 mm 0.00 in0.0 mm
03:18 AM 16.2°F-8.8°C 6.8°F-14.0°C 66% 6.0 mph SW9.7 kmh SW 16.0 mph25.7 kmh 30.25 in1024.4 mb 0.00 in0.0 mm 0.00 in0.0 mm 0.00 in0.0 mm
03:23 AM 16.2°F-8.8°C 6.8°F-14.0°C 66% 8.0 mph S12.9 kmh S 16.0 mph25.7 kmh 30.25 in1024.4 mb 0.00 in0.0 mm 0.00 in0.0 mm 0.00 in0.0 mm
03:28 AM 16.1°F-8.8°C 6.7°F-14.1°C 66% 6.0 mph SW9.7 kmh SW 16.0 mph25.7 kmh 30.25 in1024.4 mb 0.00 in0.0 mm 0.00 in0.0 mm 0.00 in0.0 mm
03:33 AM 16.0°F-8.9°C 6.6°F-14.1°C 66% 8.0 mph WSW12.9 kmh WSW 16.0 mph25.7 kmh 30.25 in1024.4 mb 0.00 in0.0 mm 0.00 in0.0 mm 0.00 in0.0 mm
03:38 AM 16.0°F-8.9°C 6.6°F-14.1°C 66% 6.0 mph SSW9.7 kmh SSW 16.0 mph25.7 kmh 30.25 in1024.4 mb 0.00 in0.0 mm 0.00 in0.0 mm 0.00 in0.0 mm
03:43 AM 16.0°F-8.9°C 6.2°F-14.3°C 65% 10.0 mph SW16.1 kmh SW 16.0 mph25.7 kmh 30.25 in1024.4 mb 0.00 in0.0 mm 0.00 in0.0 mm 0.00 in0.0 mm
03:48 AM 16.0°F-8.9°C 6.2°F-14.3°C 65% 6.0 mph SW9.7 kmh SW 16.0 mph25.7 kmh 30.25 in1024.4 mb 0.00 in0.0 mm 0.00 in0.0 mm 0.00 in0.0 mm
03:53 AM 16.0°F-8.9°C 6.2°F-14.3°C 65% 5.0 mph SW8.0 kmh SW 19.0 mph30.6 kmh 30.25 in1024.4 mb 0.00 in0.0 mm 0.00 in0.0 mm 0.00 in0.0 mm
03:58 AM 16.0°F-8.9°C 6.2°F-14.3°C 65% 5.0 mph SW8.0 kmh SW 19.0 mph30.6 kmh 30.25 in1024.4 mb 0.00 in0.0 mm 0.00 in0.0 mm 0.00 in0.0 mm
04:03 AM 16.0°F-8.9°C 6.2°F-14.3°C 65% 9.0 mph SW14.5 kmh SW 19.0 mph30.6 kmh 30.25 in1024.4 mb 0.00 in0.0 mm 0.00 in0.0 mm 0.00 in0.0 mm
04:08 AM 16.0°F-8.9°C 6.2°F-14.3°C 65% 7.0 mph SW11.3 kmh SW 19.0 mph30.6 kmh 30.24 in1024.0 mb 0.00 in0.0 mm 0.00 in0.0 mm 0.00 in0.0 mm
04:13 AM 16.1°F-8.8°C 6.3°F-14.3°C 65% 5.0 mph WSW8.0 kmh WSW 14.0 mph22.5 kmh 30.24 in1024.0 mb 0.00 in0.0 mm 0.00 in0.0 mm 0.00 in0.0 mm
04:18 AM 16.1°F-8.8°C 6.3°F-14.3°C 65% 6.0 mph SW9.7 kmh SW 14.0 mph22.5 kmh 30.24 in1024.0 mb 0.00 in0.0 mm 0.00 in0.0 mm 0.00 in0.0 mm
04:23 AM 16.1°F-8.8°C 6.3°F-14.3°C 65% 10.0 mph S16.1 kmh S 13.0 mph20.9 kmh 30.24 in1024.0 mb 0.00 in0.0 mm 0.00 in0.0 mm 0.00 in0.0 mm
04:28 AM 16.1°F-8.8°C 6.3°F-14.3°C 65% 7.0 mph SW11.3 kmh SW 15.0 mph24.1 kmh 30.24 in1024.0 mb 0.00 in0.0 mm 0.00 in0.0 mm 0.00 in0.0 mm
04:33 AM 16.1°F-8.8°C 6.3°F-14.3°C 65% 8.0 mph SW12.9 kmh SW 15.0 mph24.1 kmh 30.24 in1024.0 mb 0.00 in0.0 mm 0.00 in0.0 mm 0.00 in0.0 mm
04:38 AM 16.1°F-8.8°C 6.3°F-14.3°C 65% 5.0 mph SW8.0 kmh SW 15.0 mph24.1 kmh 30.24 in1024.0 mb 0.00 in0.0 mm 0.00 in0.0 mm 0.00 in0.0 mm
04:43 AM 16.1°F-8.8°C 6.0°F-14.4°C 64% 5.0 mph SW8.0 kmh SW 16.0 mph25.7 kmh 30.23 in1023.7 mb 0.00 in0.0 mm 0.00 in0.0 mm 0.00 in0.0 mm
04:48 AM 16.1°F-8.8°C 6.0°F-14.4°C 64% 7.0 mph WSW11.3 kmh WSW 16.0 mph25.7 kmh 30.23 in1023.7 mb 0.00 in0.0 mm 0.00 in0.0 mm 0.00 in0.0 mm
04:53 AM 16.0°F-8.9°C 6.2°F-14.3°C 65% 7.0 mph WSW11.3 kmh WSW 16.0 mph25.7 kmh 30.23 in1023.7 mb 0.00 in0.0 mm 0.00 in0.0 mm 0.00 in0.0 mm
04:58 AM 16.0°F-8.9°C 6.2°F-14.3°C 65% 6.0 mph SW9.7 kmh SW 20.0 mph32.2 kmh 30.22 in1023.4 mb 0.00 in0.0 mm 0.00 in0.0 mm 0.00 in0.0 mm
05:03 AM 16.0°F-8.9°C 6.2°F-14.3°C 65% 8.0 mph S12.9 kmh S 20.0 mph32.2 kmh 30.21 in1023.0 mb 0.00 in0.0 mm 0.00 in0.0 mm 0.00 in0.0 mm
05:08 AM 15.8°F-9.0°C 6.0°F-14.4°C 65% 8.0 mph SW12.9 kmh SW 20.0 mph32.2 kmh 30.21 in1023.0 mb 0.00 in0.0 mm 0.00 in0.0 mm 0.00 in0.0 mm
05:13 AM 15.8°F-9.0°C 6.0°F-14.4°C 65% 10.0 mph SW16.1 kmh SW 20.0 mph32.2 kmh 30.21 in1023.0 mb 0.00 in0.0 mm 0.00 in0.0 mm 0.00 in0.0 mm
05:18 AM 15.8°F-9.0°C 6.0°F-14.4°C 65% 7.0 mph SSW11.3 kmh SSW 20.0 mph32.2 kmh 30.20 in1022.7 mb 0.00 in0.0 mm 0.00 in0.0 mm 0.00 in0.0 mm
05:23 AM 15.8°F-9.0°C 6.0°F-14.4°C 65% 18.0 mph WSW29.0 kmh WSW 24.0 mph38.6 kmh 30.20 in1022.7 mb 0.00 in0.0 mm 0.00 in0.0 mm 0.00 in0.0 mm
05:28 AM 15.8°F-9.0°C 6.0°F-14.4°C 65% 18.0 mph SW29.0 kmh SW 24.0 mph38.6 kmh 30.20 in1022.7 mb 0.00 in0.0 mm 0.00 in0.0 mm 0.00 in0.0 mm
05:33 AM 15.8°F-9.0°C 6.0°F-14.4°C 65% 10.0 mph SW16.1 kmh SW 25.0 mph40.2 kmh 30.20 in1022.7 mb 0.00 in0.0 mm 0.00 in0.0 mm 0.00 in0.0 mm
05:38 AM 15.8°F-9.0°C 6.0°F-14.4°C 65% 12.0 mph SW19.3 kmh SW 25.0 mph40.2 kmh 30.20 in1022.7 mb 0.00 in0.0 mm 0.00 in0.0 mm 0.00 in0.0 mm
05:43 AM 15.9°F-8.9°C 6.1°F-14.4°C 65% 7.0 mph SW11.3 kmh SW 25.0 mph40.2 kmh 30.20 in1022.7 mb 0.00 in0.0 mm 0.00 in0.0 mm 0.00 in0.0 mm
05:48 AM 15.9°F-8.9°C 6.1°F-14.4°C 65% 5.0 mph SW8.0 kmh SW 25.0 mph40.2 kmh 30.20 in1022.7 mb 0.00 in0.0 mm 0.00 in0.0 mm 0.00 in0.0 mm
05:53 AM 15.9°F-8.9°C 6.1°F-14.4°C 65% 5.0 mph WSW8.0 kmh WSW 20.0 mph32.2 kmh 30.21 in1023.0 mb 0.00 in0.0 mm 0.00 in0.0 mm 0.00 in0.0 mm
05:58 AM 15.9°F-8.9°C 6.1°F-14.4°C 65% 9.0 mph W14.5 kmh W 20.0 mph32.2 kmh 30.21 in1023.0 mb 0.00 in0.0 mm 0.00 in0.0 mm 0.00 in0.0 mm
06:03 AM 16.0°F-8.9°C 6.2°F-14.3°C 65% 6.0 mph W9.7 kmh W 12.0 mph19.3 kmh 30.21 in1023.0 mb 0.00 in0.0 mm 0.00 in0.0 mm 0.00 in0.0 mm
06:08 AM 15.9°F-8.9°C 6.1°F-14.4°C 65% 5.0 mph SW8.0 kmh SW 12.0 mph19.3 kmh 30.21 in1023.0 mb 0.00 in0.0 mm 0.00 in0.0 mm 0.00 in0.0 mm
06:13 AM 15.8°F-9.0°C 6.0°F-14.4°C 65% 12.0 mph WSW19.3 kmh WSW 14.0 mph22.5 kmh 30.22 in1023.4 mb 0.00 in0.0 mm 0.00 in0.0 mm 0.00 in0.0 mm
06:18 AM 15.8°F-9.0°C 6.0°F-14.4°C 65% 6.0 mph WSW9.7 kmh WSW 14.0 mph22.5 kmh 30.22 in1023.4 mb 0.00 in0.0 mm 0.00 in0.0 mm 0.00 in0.0 mm
06:23 AM 15.6°F-9.1°C 5.9°F-14.5°C 65% 3.0 mph WSW4.8 kmh WSW 14.0 mph22.5 kmh 30.22 in1023.4 mb 0.00 in0.0 mm 0.00 in0.0 mm 0.00 in0.0 mm
06:28 AM 15.6°F-9.1°C 5.9°F-14.5°C 65% 3.0 mph WSW4.8 kmh WSW 14.0 mph22.5 kmh 30.22 in1023.4 mb 0.00 in0.0 mm 0.00 in0.0 mm 0.00 in0.0 mm
06:33 AM 15.5°F-9.2°C 5.8°F-14.6°C 65% 7.0 mph WSW11.3 kmh WSW 13.0 mph20.9 kmh 30.22 in1023.4 mb 0.00 in0.0 mm 0.00 in0.0 mm 0.00 in0.0 mm
06:38 AM 15.3°F-9.3°C 5.6°F-14.7°C 65% 4.0 mph SW6.4 kmh SW 13.0 mph20.9 kmh 30.22 in1023.4 mb 0.00 in0.0 mm 0.00 in0.0 mm 0.00 in0.0 mm
06:43 AM 15.3°F-9.3°C 5.6°F-14.7°C 65% 4.0 mph WSW6.4 kmh WSW 12.0 mph19.3 kmh 30.22 in1023.4 mb 0.00 in0.0 mm 0.00 in0.0 mm 0.00 in0.0 mm
06:48 AM 15.1°F-9.4°C 5.4°F-14.8°C 65% 5.0 mph SW8.0 kmh SW 12.0 mph19.3 kmh 30.22 in1023.4 mb 0.00 in0.0 mm 0.00 in0.0 mm 0.00 in0.0 mm
06:53 AM 15.1°F-9.4°C 5.7°F-14.6°C 66% 4.0 mph SW6.4 kmh SW 11.0 mph17.7 kmh 30.22 in1023.4 mb 0.00 in0.0 mm 0.00 in0.0 mm 0.00 in0.0 mm
06:58 AM 15.0°F-9.4°C 5.6°F-14.7°C 66% 4.0 mph SW6.4 kmh SW 11.0 mph17.7 kmh 30.22 in1023.4 mb 0.00 in0.0 mm 0.00 in0.0 mm 0.00 in0.0 mm
07:03 AM 15.0°F-9.4°C 5.6°F-14.7°C 66% 4.0 mph SW6.4 kmh SW 10.0 mph16.1 kmh 30.22 in1023.4 mb 0.00 in0.0 mm 0.00 in0.0 mm 0.00 in0.0 mm
07:08 AM 14.9°F-9.5°C 5.5°F-14.7°C 66% 3.0 mph SW4.8 kmh SW 10.0 mph16.1 kmh 30.22 in1023.4 mb 0.00 in0.0 mm 0.00 in0.0 mm 0.00 in0.0 mm
07:13 AM 14.8°F-9.6°C 5.4°F-14.8°C 66% 3.0 mph SW4.8 kmh SW 8.0 mph12.9 kmh 30.22 in1023.4 mb 0.00 in0.0 mm 0.00 in0.0 mm 0.00 in0.0 mm
07:18 AM 14.7°F-9.6°C 5.3°F-14.8°C 66% 3.0 mph SW4.8 kmh SW 8.0 mph12.9 kmh 30.22 in1023.4 mb 0.00 in0.0 mm 0.00 in0.0 mm 0.00 in0.0 mm
07:23 AM 14.6°F-9.7°C 5.2°F-14.9°C 66% 4.0 mph SW6.4 kmh SW 8.0 mph12.9 kmh 30.22 in1023.4 mb 0.00 in0.0 mm 0.00 in0.0 mm 0.00 in0.0 mm
07:28 AM 14.6°F-9.7°C 5.6°F-14.7°C 67% 4.0 mph SW6.4 kmh SW 11.0 mph17.7 kmh 30.22 in1023.4 mb 0.00 in0.0 mm 0.00 in0.0 mm 0.00 in0.0 mm
07:33 AM 14.6°F-9.7°C 5.6°F-14.7°C 67% 6.0 mph SW9.7 kmh SW 11.0 mph17.7 kmh 30.22 in1023.4 mb 0.00 in0.0 mm 0.00 in0.0 mm 0.00 in0.0 mm
07:38 AM 14.5°F-9.7°C 5.5°F-14.7°C 67% 5.0 mph SW8.0 kmh SW 11.0 mph17.7 kmh 30.22 in1023.4 mb 0.00 in0.0 mm 0.00 in0.0 mm 0.00 in0.0 mm
07:43 AM 14.4°F-9.8°C 5.4°F-14.8°C 67% 4.0 mph SW6.4 kmh SW 11.0 mph17.7 kmh 30.22 in1023.4 mb 0.00 in0.0 mm 0.00 in0.0 mm 0.00 in0.0 mm
07:48 AM 14.4°F-9.8°C 5.4°F-14.8°C 67% 5.0 mph SW8.0 kmh SW 9.0 mph14.5 kmh 30.22 in1023.4 mb 0.00 in0.0 mm 0.00 in0.0 mm 0.00 in0.0 mm
07:53 AM 14.4°F-9.8°C 5.4°F-14.8°C 67% 4.0 mph SW6.4 kmh SW 9.0 mph14.5 kmh 30.22 in1023.4 mb 0.00 in0.0 mm 0.00 in0.0 mm 0.00 in0.0 mm
07:58 AM 14.3°F-9.8°C 5.3°F-14.8°C 67% 3.0 mph SW4.8 kmh SW 10.0 mph16.1 kmh 30.22 in1023.4 mb 0.00 in0.0 mm 0.00 in0.0 mm 0.00 in0.0 mm
08:03 AM 14.3°F-9.8°C 5.3°F-14.8°C 67% 8.0 mph WSW12.9 kmh WSW 11.0 mph17.7 kmh 30.22 in1023.4 mb 0.00 in0.0 mm 0.00 in0.0 mm 0.00 in0.0 mm
08:08 AM 14.3°F-9.8°C 5.3°F-14.8°C 67% 8.0 mph SW12.9 kmh SW 14.0 mph22.5 kmh 30.22 in1023.4 mb 0.00 in0.0 mm 0.00 in0.0 mm 0.00 in0.0 mm
08:13 AM 14.3°F-9.8°C 5.3°F-14.8°C 67% 9.0 mph SW14.5 kmh SW 14.0 mph22.5 kmh 30.22 in1023.4 mb 0.00 in0.0 mm 0.00 in0.0 mm 0.00 in0.0 mm
08:18 AM 14.2°F-9.9°C 5.5°F-14.7°C 68% 8.0 mph WSW12.9 kmh WSW 14.0 mph22.5 kmh 30.22 in1023.4 mb 0.00 in0.0 mm 0.00 in0.0 mm 0.00 in0.0 mm
08:23 AM 14.2°F-9.9°C 5.5°F-14.7°C 68% 8.0 mph WSW12.9 kmh WSW 14.0 mph22.5 kmh 30.22 in1023.4 mb 0.00 in0.0 mm 0.00 in0.0 mm 0.00 in0.0 mm
08:28 AM 14.2°F-9.9°C 5.5°F-14.7°C 68% 10.0 mph SW16.1 kmh SW 15.0 mph24.1 kmh 30.22 in1023.4 mb 0.00 in0.0 mm 0.00 in0.0 mm 0.00 in0.0 mm
08:33 AM 14.2°F-9.9°C 5.5°F-14.7°C 68% 7.0 mph SSW11.3 kmh SSW 15.0 mph24.1 kmh 30.23 in1023.7 mb 0.00 in0.0 mm 0.00 in0.0 mm 0.00 in0.0 mm
08:38 AM 14.1°F-9.9°C 5.4°F-14.8°C 68% 12.0 mph SW19.3 kmh SW 15.0 mph24.1 kmh 30.23 in1023.7 mb 0.00 in0.0 mm 0.00 in0.0 mm 0.00 in0.0 mm
08:43 AM 14.2°F-9.9°C 5.5°F-14.7°C 68% 8.0 mph SW12.9 kmh SW 15.0 mph24.1 kmh 30.23 in1023.7 mb 0.00 in0.0 mm 0.00 in0.0 mm 0.00 in0.0 mm
08:48 AM 14.2°F-9.9°C 5.5°F-14.7°C 68% 12.0 mph SW19.3 kmh SW 15.0 mph24.1 kmh 30.23 in1023.7 mb 0.00 in0.0 mm 0.00 in0.0 mm 0.00 in0.0 mm
08:53 AM 14.2°F-9.9°C 5.5°F-14.7°C 68% 10.0 mph SW16.1 kmh SW 15.0 mph24.1 kmh 30.23 in1023.7 mb 0.00 in0.0 mm 0.00 in0.0 mm 0.00 in0.0 mm
08:58 AM 14.3°F-9.8°C 5.6°F-14.7°C 68% 8.0 mph WSW12.9 kmh WSW 20.0 mph32.2 kmh 30.23 in1023.7 mb 0.00 in0.0 mm 0.00 in0.0 mm 0.00 in0.0 mm
09:03 AM 14.4°F-9.8°C 5.7°F-14.6°C 68% 14.0 mph WSW22.5 kmh WSW 20.0 mph32.2 kmh 30.23 in1023.7 mb 0.00 in0.0 mm 0.00 in0.0 mm 0.00 in0.0 mm
09:08 AM 14.5°F-9.7°C 5.8°F-14.6°C 68% 10.0 mph WSW16.1 kmh WSW 20.0 mph32.2 kmh 30.23 in1023.7 mb 0.00 in0.0 mm 0.00 in0.0 mm 0.00 in0.0 mm
09:13 AM 14.6°F-9.7°C 5.9°F-14.5°C 68% 17.0 mph WSW27.4 kmh WSW 20.0 mph32.2 kmh 30.23 in1023.7 mb 0.00 in0.0 mm 0.00 in0.0 mm 0.00 in0.0 mm
09:18 AM 14.7°F-9.6°C 6.0°F-14.4°C 68% 8.0 mph WSW12.9 kmh WSW 17.0 mph27.4 kmh 30.23 in1023.7 mb 0.00 in0.0 mm 0.00 in0.0 mm 0.00 in0.0 mm
09:23 AM 14.8°F-9.6°C 6.1°F-14.4°C 68% 9.0 mph SW14.5 kmh SW 17.0 mph27.4 kmh 30.23 in1023.7 mb 0.00 in0.0 mm 0.00 in0.0 mm 0.00 in0.0 mm
09:28 AM 14.9°F-9.5°C 6.2°F-14.3°C 68% 9.0 mph SW14.5 kmh SW 17.0 mph27.4 kmh 30.23 in1023.7 mb 0.00 in0.0 mm 0.00 in0.0 mm 0.00 in0.0 mm
09:33 AM 15.0°F-9.4°C 6.3°F-14.3°C 68% 12.0 mph WSW19.3 kmh WSW 17.0 mph27.4 kmh 30.23 in1023.7 mb 0.00 in0.0 mm 0.00 in0.0 mm 0.00 in0.0 mm
09:38 AM 15.2°F-9.3°C 6.5°F-14.2°C 68% 12.0 mph SW19.3 kmh SW 16.0 mph25.7 kmh 30.23 in1023.7 mb 0.00 in0.0 mm 0.00 in0.0 mm 0.00 in0.0 mm
09:43 AM 15.3°F-9.3°C 6.6°F-14.1°C 68% 8.0 mph SW12.9 kmh SW 17.0 mph27.4 kmh 30.23 in1023.7 mb 0.00 in0.0 mm 0.00 in0.0 mm 0.00 in0.0 mm
09:48 AM 15.5°F-9.2°C 6.4°F-14.2°C 67% 15.0 mph SW24.1 kmh SW 17.0 mph27.4 kmh 30.23 in1023.7 mb 0.00 in0.0 mm 0.00 in0.0 mm 0.00 in0.0 mm
09:53 AM 15.8°F-9.0°C 6.7°F-14.1°C 67% 14.0 mph SW22.5 kmh SW 17.0 mph27.4 kmh 30.23 in1023.7 mb 0.00 in0.0 mm 0.00 in0.0 mm 0.00 in0.0 mm
09:58 AM 16.0°F-8.9°C 6.6°F-14.1°C 66% 4.0 mph WSW6.4 kmh WSW 17.0 mph27.4 kmh 30.23 in1023.7 mb 0.00 in0.0 mm 0.00 in0.0 mm 0.00 in0.0 mm
10:03 AM 16.1°F-8.8°C 6.7°F-14.1°C 66% 7.0 mph WSW11.3 kmh WSW 14.0 mph22.5 kmh 30.23 in1023.7 mb 0.00 in0.0 mm 0.00 in0.0 mm 0.00 in0.0 mm
10:08 AM 16.2°F-8.8°C 6.8°F-14.0°C 66% 6.0 mph WSW9.7 kmh WSW 14.0 mph22.5 kmh 30.23 in1023.7 mb 0.00 in0.0 mm 0.00 in0.0 mm 0.00 in0.0 mm
10:13 AM 16.4°F-8.7°C 7.0°F-13.9°C 66% 7.0 mph SSW11.3 kmh SSW 15.0 mph24.1 kmh 30.22 in1023.4 mb 0.00 in0.0 mm 0.00 in0.0 mm 0.00 in0.0 mm
10:18 AM 16.6°F-8.6°C 7.1°F-13.8°C 66% 6.0 mph SW9.7 kmh SW 15.0 mph24.1 kmh 30.21 in1023.0 mb 0.00 in0.0 mm 0.00 in0.0 mm 0.00 in0.0 mm
10:23 AM 16.7°F-8.5°C 7.2°F-13.8°C 66% 5.0 mph SW8.0 kmh SW 15.0 mph24.1 kmh 30.22 in1023.4 mb 0.00 in0.0 mm 0.00 in0.0 mm 0.00 in0.0 mm
10:28 AM 17.0°F-8.3°C 7.2°F-13.8°C 65% 8.0 mph SSW12.9 kmh SSW 15.0 mph24.1 kmh 30.21 in1023.0 mb 0.00 in0.0 mm 0.00 in0.0 mm 0.00 in0.0 mm
10:33 AM 17.2°F-8.2°C 7.4°F-13.7°C 65% 4.0 mph SW6.4 kmh SW 15.0 mph24.1 kmh 30.22 in1023.4 mb 0.00 in0.0 mm 0.00 in0.0 mm 0.00 in0.0 mm
10:38 AM 17.3°F-8.2°C 7.5°F-13.6°C 65% 10.0 mph SW16.1 kmh SW 15.0 mph24.1 kmh 30.23 in1023.7 mb 0.00 in0.0 mm 0.00 in0.0 mm 0.00 in0.0 mm
10:43 AM 17.5°F-8.1°C 7.7°F-13.5°C 65% 5.0 mph SW8.0 kmh SW 15.0 mph24.1 kmh 30.23 in1023.7 mb 0.00 in0.0 mm 0.00 in0.0 mm 0.00 in0.0 mm
10:48 AM 17.6°F-8.0°C 7.8°F-13.4°C 65% 10.0 mph SW16.1 kmh SW 16.0 mph25.7 kmh 30.23 in1023.7 mb 0.00 in0.0 mm 0.00 in0.0 mm 0.00 in0.0 mm
10:53 AM 17.7°F-7.9°C 7.8°F-13.4°C 65% 7.0 mph SW11.3 kmh SW 16.0 mph25.7 kmh 30.23 in1023.7 mb 0.00 in0.0 mm 0.00 in0.0 mm 0.00 in0.0 mm
10:58 AM 17.9°F-7.8°C 8.0°F-13.3°C 65% 9.0 mph SW14.5 kmh SW 16.0 mph25.7 kmh 30.23 in1023.7 mb 0.00 in0.0 mm 0.00 in0.0 mm 0.00 in0.0 mm
11:03 AM 17.8°F-7.9°C 7.9°F-13.4°C 65% 6.0 mph SW9.7 kmh SW 16.0 mph25.7 kmh 30.23 in1023.7 mb 0.00 in0.0 mm 0.00 in0.0 mm 0.00 in0.0 mm
11:08 AM 18.0°F-7.8°C 8.1°F-13.3°C 65% 6.0 mph SW9.7 kmh SW 18.0 mph29.0 kmh 30.23 in1023.7 mb 0.00 in0.0 mm 0.00 in0.0 mm 0.00 in0.0 mm
11:13 AM 18.3°F-7.6°C 8.4°F-13.1°C 65% 6.0 mph SW9.7 kmh SW 18.0 mph29.0 kmh 30.23 in1023.7 mb 0.00 in0.0 mm 0.00 in0.0 mm 0.00 in0.0 mm
11:18 AM 18.4°F-7.6°C 8.5°F-13.1°C 65% 7.0 mph SW11.3 kmh SW 18.0 mph29.0 kmh 30.23 in1023.7 mb 0.00 in0.0 mm 0.00 in0.0 mm 0.00 in0.0 mm
11:23 AM 18.7°F-7.4°C 8.4°F-13.1°C 64% 7.0 mph SW11.3 kmh SW 18.0 mph29.0 kmh 30.23 in1023.7 mb 0.00 in0.0 mm 0.00 in0.0 mm 0.00 in0.0 mm
11:28 AM 18.7°F-7.4°C 8.4°F-13.1°C 64% 5.0 mph SW8.0 kmh SW 21.0 mph33.8 kmh 30.23 in1023.7 mb 0.00 in0.0 mm 0.00 in0.0 mm 0.00 in0.0 mm
11:33 AM 19.0°F-7.2°C 8.7°F-12.9°C 64% 4.0 mph SW6.4 kmh SW 21.0 mph33.8 kmh 30.23 in1023.7 mb 0.00 in0.0 mm 0.00 in0.0 mm 0.00 in0.0 mm
11:38 AM 19.2°F-7.1°C 8.9°F-12.8°C 64% 6.0 mph WSW9.7 kmh WSW 21.0 mph33.8 kmh 30.23 in1023.7 mb 0.00 in0.0 mm 0.00 in0.0 mm 0.00 in0.0 mm
11:43 AM 19.5°F-6.9°C 8.8°F-12.9°C 63% 7.0 mph SW11.3 kmh SW 21.0 mph33.8 kmh 30.23 in1023.7 mb 0.00 in0.0 mm 0.00 in0.0 mm 0.00 in0.0 mm
11:48 AM 19.6°F-6.9°C 8.9°F-12.8°C 63% 5.0 mph WSW8.0 kmh WSW 14.0 mph22.5 kmh 30.23 in1023.7 mb 0.00 in0.0 mm 0.00 in0.0 mm 0.00 in0.0 mm
11:53 AM 19.6°F-6.9°C 8.9°F-12.8°C 63% 8.0 mph SW12.9 kmh SW 15.0 mph24.1 kmh 30.23 in1023.7 mb 0.00 in0.0 mm 0.00 in0.0 mm 0.00 in0.0 mm
11:58 AM 20.0°F-6.7°C 9.3°F-12.6°C 63% 5.0 mph SW8.0 kmh SW 15.0 mph24.1 kmh 30.23 in1023.7 mb 0.00 in0.0 mm 0.00 in0.0 mm 0.00 in0.0 mm
12:03 PM 20.3°F-6.5°C 9.6°F-12.4°C 63% 6.0 mph SW9.7 kmh SW 15.0 mph24.1 kmh 30.22 in1023.4 mb 0.00 in0.0 mm 0.00 in0.0 mm 0.00 in0.0 mm
12:08 PM 20.5°F-6.4°C 9.8°F-12.3°C 63% 10.0 mph SSW16.1 kmh SSW 15.0 mph24.1 kmh 30.22 in1023.4 mb 0.00 in0.0 mm 0.00 in0.0 mm 0.00 in0.0 mm
12:13 PM 20.5°F-6.4°C 9.8°F-12.3°C 63% 11.0 mph SSW17.7 kmh SSW 15.0 mph24.1 kmh 30.22 in1023.4 mb 0.00 in0.0 mm 0.00 in0.0 mm 0.00 in0.0 mm
12:18 PM 20.5°F-6.4°C 9.8°F-12.3°C 63% 8.0 mph SW12.9 kmh SW 15.0 mph24.1 kmh 30.22 in1023.4 mb 0.00 in0.0 mm 0.00 in0.0 mm 0.00 in0.0 mm
12:23 PM 20.9°F-6.2°C 9.8°F-12.3°C 62% 5.0 mph SW8.0 kmh SW 15.0 mph24.1 kmh 30.21 in1023.0 mb 0.00 in0.0 mm 0.00 in0.0 mm 0.00 in0.0 mm
12:28 PM 21.1°F-6.1°C 10.0°F-12.2°C 62% 8.0 mph WSW12.9 kmh WSW 17.0 mph27.4 kmh 30.21 in1023.0 mb 0.00 in0.0 mm 0.00 in0.0 mm 0.00 in0.0 mm
12:33 PM 21.3°F-5.9°C 10.2°F-12.1°C 62% 8.0 mph SSW12.9 kmh SSW 17.0 mph27.4 kmh 30.21 in1023.0 mb 0.00 in0.0 mm 0.00 in0.0 mm 0.00 in0.0 mm
12:38 PM 21.4°F-5.9°C 10.3°F-12.1°C 62% 4.0 mph SW6.4 kmh SW 17.0 mph27.4 kmh 30.21 in1023.0 mb 0.00 in0.0 mm 0.00 in0.0 mm 0.00 in0.0 mm
12:43 PM 21.6°F-5.8°C 10.5°F-11.9°C 62% 6.0 mph SW9.7 kmh SW 17.0 mph27.4 kmh 30.21 in1023.0 mb 0.00 in0.0 mm 0.00 in0.0 mm 0.00 in0.0 mm
12:48 PM 21.5°F-5.8°C 10.4°F-12.0°C 62% 11.0 mph SW17.7 kmh SW 15.0 mph24.1 kmh 30.20 in1022.7 mb 0.00 in0.0 mm 0.00 in0.0 mm 0.00 in0.0 mm
12:53 PM 21.7°F-5.7°C 10.6°F-11.9°C 62% 4.0 mph S6.4 kmh S 15.0 mph24.1 kmh 30.20 in1022.7 mb 0.00 in0.0 mm 0.00 in0.0 mm 0.00 in0.0 mm
12:58 PM 22.0°F-5.6°C 10.8°F-11.8°C 62% 5.0 mph SW8.0 kmh SW 21.0 mph33.8 kmh 30.20 in1022.7 mb 0.00 in0.0 mm 0.00 in0.0 mm 0.00 in0.0 mm
01:03 PM 22.0°F-5.6°C 10.5°F-11.9°C 61% 8.0 mph SW12.9 kmh SW 21.0 mph33.8 kmh 30.20 in1022.7 mb 0.00 in0.0 mm 0.00 in0.0 mm 0.00 in0.0 mm
01:08 PM 22.2°F-5.4°C 10.6°F-11.9°C 61% 6.0 mph SW9.7 kmh SW 21.0 mph33.8 kmh 30.20 in1022.7 mb 0.00 in0.0 mm 0.00 in0.0 mm 0.00 in0.0 mm
01:13 PM 22.3°F-5.4°C 10.7°F-11.8°C 61% 10.0 mph W16.1 kmh W 21.0 mph33.8 kmh 30.20 in1022.7 mb 0.00 in0.0 mm 0.00 in0.0 mm 0.00 in0.0 mm
01:18 PM 22.4°F-5.3°C 11.2°F-11.6°C 62% 5.0 mph SSW8.0 kmh SSW 18.0 mph29.0 kmh 30.19 in1022.4 mb 0.00 in0.0 mm 0.00 in0.0 mm 0.00 in0.0 mm
01:23 PM 22.5°F-5.3°C 10.9°F-11.7°C 61% 9.0 mph SW14.5 kmh SW 18.0 mph29.0 kmh 30.18 in1022.0 mb 0.00 in0.0 mm 0.00 in0.0 mm 0.00 in0.0 mm
01:28 PM 22.5°F-5.3°C 11.3°F-11.5°C 62% 5.0 mph SW8.0 kmh SW 16.0 mph25.7 kmh 30.18 in1022.0 mb 0.00 in0.0 mm 0.00 in0.0 mm 0.00 in0.0 mm
01:33 PM 22.7°F-5.2°C 11.5°F-11.4°C 62% 5.0 mph WSW8.0 kmh WSW 16.0 mph25.7 kmh 30.18 in1022.0 mb 0.00 in0.0 mm 0.00 in0.0 mm 0.00 in0.0 mm
01:38 PM 22.8°F-5.1°C 11.2°F-11.6°C 61% 5.0 mph SW8.0 kmh SW 15.0 mph24.1 kmh 30.18 in1022.0 mb 0.00 in0.0 mm 0.00 in0.0 mm 0.00 in0.0 mm
01:43 PM 22.9°F-5.1°C 11.3°F-11.5°C 61% 8.0 mph SW12.9 kmh SW 15.0 mph24.1 kmh 30.18 in1022.0 mb 0.00 in0.0 mm 0.00 in0.0 mm 0.00 in0.0 mm
01:48 PM 23.0°F-5.0°C 11.4°F-11.4°C 61% 6.0 mph SW9.7 kmh SW 15.0 mph24.1 kmh 30.17 in1021.7 mb 0.00 in0.0 mm 0.00 in0.0 mm 0.00 in0.0 mm
01:53 PM 23.4°F-4.8°C 11.8°F-11.2°C 61% 6.0 mph W9.7 kmh W 15.0 mph24.1 kmh 30.17 in1021.7 mb 0.00 in0.0 mm 0.00 in0.0 mm 0.00 in0.0 mm
01:58 PM 23.7°F-4.6°C 12.1°F-11.1°C 61% 6.0 mph SW9.7 kmh SW 13.0 mph20.9 kmh 30.17 in1021.7 mb 0.00 in0.0 mm 0.00 in0.0 mm 0.00 in0.0 mm
02:03 PM 23.6°F-4.7°C 12.0°F-11.1°C 61% 7.0 mph SW11.3 kmh SW 13.0 mph20.9 kmh 30.17 in1021.7 mb 0.00 in0.0 mm 0.00 in0.0 mm 0.00 in0.0 mm
02:08 PM 23.9°F-4.5°C 12.3°F-10.9°C 61% 6.0 mph WSW9.7 kmh WSW 11.0 mph17.7 kmh 30.16 in1021.3 mb 0.00 in0.0 mm 0.00 in0.0 mm 0.00 in0.0 mm
02:13 PM 24.2°F-4.3°C 12.5°F-10.8°C 61% 6.0 mph SW9.7 kmh SW 11.0 mph17.7 kmh 30.16 in1021.3 mb 0.00 in0.0 mm 0.00 in0.0 mm 0.00 in0.0 mm
02:18 PM 24.4°F-4.2°C 12.3°F-10.9°C 60% 6.0 mph WSW9.7 kmh WSW 12.0 mph19.3 kmh 30.16 in1021.3 mb 0.00 in0.0 mm 0.00 in0.0 mm 0.00 in0.0 mm
02:23 PM 24.7°F-4.1°C 13.0°F-10.6°C 61% 17.0 mph S27.4 kmh S 17.0 mph27.4 kmh 30.16 in1021.3 mb 0.00 in0.0 mm 0.00 in0.0 mm 0.00 in0.0 mm
02:28 PM 24.9°F-3.9°C 12.8°F-10.7°C 60% 5.0 mph SW8.0 kmh SW 18.0 mph29.0 kmh 30.15 in1021.0 mb 0.00 in0.0 mm 0.00 in0.0 mm 0.00 in0.0 mm
02:33 PM 25.0°F-3.9°C 12.5°F-10.8°C 59% 14.0 mph SSW22.5 kmh SSW 18.0 mph29.0 kmh 30.15 in1021.0 mb 0.00 in0.0 mm 0.00 in0.0 mm 0.00 in0.0 mm
02:38 PM 24.8°F-4.0°C 12.3°F-10.9°C 59% 5.0 mph SW8.0 kmh SW 24.0 mph38.6 kmh 30.15 in1021.0 mb 0.00 in0.0 mm 0.00 in0.0 mm 0.00 in0.0 mm
02:43 PM 24.9°F-3.9°C 12.8°F-10.7°C 60% 7.0 mph SSW11.3 kmh SSW 24.0 mph38.6 kmh 30.15 in1021.0 mb 0.00 in0.0 mm 0.00 in0.0 mm 0.00 in0.0 mm
02:48 PM 25.1°F-3.8°C 13.0°F-10.6°C 60% 5.0 mph SW8.0 kmh SW 24.0 mph38.6 kmh 30.15 in1021.0 mb 0.00 in0.0 mm 0.00 in0.0 mm 0.00 in0.0 mm
02:53 PM 25.0°F-3.9°C 12.9°F-10.6°C 60% 5.0 mph SW8.0 kmh SW 24.0 mph38.6 kmh 30.15 in1021.0 mb 0.00 in0.0 mm 0.00 in0.0 mm 0.00 in0.0 mm
02:58 PM 25.2°F-3.8°C 12.7°F-10.7°C 59% 6.0 mph WSW9.7 kmh WSW 21.0 mph33.8 kmh 30.14 in1020.7 mb 0.00 in0.0 mm 0.00 in0.0 mm 0.00 in0.0 mm
03:03 PM 25.4°F-3.7°C 12.9°F-10.6°C 59% 7.0 mph SW11.3 kmh SW 21.0 mph33.8 kmh 30.14 in1020.7 mb 0.00 in0.0 mm 0.00 in0.0 mm 0.00 in0.0 mm
03:08 PM 25.4°F-3.7°C 12.9°F-10.6°C 59% 8.0 mph SW12.9 kmh SW 21.0 mph33.8 kmh 30.14 in1020.7 mb 0.00 in0.0 mm 0.00 in0.0 mm 0.00 in0.0 mm
03:13 PM 25.5°F-3.6°C 13.0°F-10.6°C 59% 6.0 mph WSW9.7 kmh WSW 21.0 mph33.8 kmh 30.15 in1021.0 mb 0.00 in0.0 mm 0.00 in0.0 mm 0.00 in0.0 mm
03:18 PM 25.6°F-3.6°C 13.1°F-10.5°C 59% 6.0 mph SW9.7 kmh SW 21.0 mph33.8 kmh 30.15 in1021.0 mb 0.00 in0.0 mm 0.00 in0.0 mm 0.00 in0.0 mm
03:23 PM 25.8°F-3.4°C 13.7°F-10.2°C 60% 4.0 mph WSW6.4 kmh WSW 21.0 mph33.8 kmh 30.15 in1021.0 mb 0.00 in0.0 mm 0.00 in0.0 mm 0.00 in0.0 mm
03:28 PM 25.7°F-3.5°C 13.2°F-10.4°C 59% 6.0 mph S9.7 kmh S 14.0 mph22.5 kmh 30.14 in1020.7 mb 0.00 in0.0 mm 0.00 in0.0 mm 0.00 in0.0 mm
03:33 PM 25.9°F-3.4°C 13.4°F-10.3°C 59% 10.0 mph S16.1 kmh S 14.0 mph22.5 kmh 30.15 in1021.0 mb 0.00 in0.0 mm 0.00 in0.0 mm 0.00 in0.0 mm
03:38 PM 26.1°F-3.3°C 13.5°F-10.3°C 59% 8.0 mph S12.9 kmh S 14.0 mph22.5 kmh 30.15 in1021.0 mb 0.00 in0.0 mm 0.00 in0.0 mm 0.00 in0.0 mm
03:43 PM 26.1°F-3.3°C 13.5°F-10.3°C 59% 5.0 mph SSW8.0 kmh SSW 14.0 mph22.5 kmh 30.15 in1021.0 mb 0.00 in0.0 mm 0.00 in0.0 mm 0.00 in0.0 mm
03:48 PM 26.2°F-3.2°C 13.6°F-10.2°C 59% 6.0 mph S9.7 kmh S 14.0 mph22.5 kmh 30.14 in1020.7 mb 0.00 in0.0 mm 0.00 in0.0 mm 0.00 in0.0 mm
03:53 PM 26.2°F-3.2°C 13.6°F-10.2°C 59% 4.0 mph SW6.4 kmh SW 19.0 mph30.6 kmh 30.14 in1020.7 mb 0.00 in0.0 mm 0.00 in0.0 mm 0.00 in0.0 mm
03:58 PM 26.3°F-3.2°C 13.7°F-10.2°C 59% 5.0 mph WSW8.0 kmh WSW 19.0 mph30.6 kmh 30.14 in1020.7 mb 0.00 in0.0 mm 0.00 in0.0 mm 0.00 in0.0 mm
04:03 PM 26.4°F-3.1°C 13.8°F-10.1°C 59% 7.0 mph SSW11.3 kmh SSW 19.0 mph30.6 kmh 30.14 in1020.7 mb 0.00 in0.0 mm 0.00 in0.0 mm 0.00 in0.0 mm
04:08 PM 26.5°F-3.1°C 13.9°F-10.1°C 59% 5.0 mph SW8.0 kmh SW 19.0 mph30.6 kmh 30.14 in1020.7 mb 0.00 in0.0 mm 0.00 in0.0 mm 0.00 in0.0 mm
04:13 PM 26.6°F-3.0°C 14.0°F-10.0°C 59% 6.0 mph SW9.7 kmh SW 18.0 mph29.0 kmh 30.14 in1020.7 mb 0.00 in0.0 mm 0.00 in0.0 mm 0.00 in0.0 mm
04:18 PM 26.6°F-3.0°C 14.0°F-10.0°C 59% 4.0 mph SW6.4 kmh SW 18.0 mph29.0 kmh 30.14 in1020.7 mb 0.00 in0.0 mm 0.00 in0.0 mm 0.00 in0.0 mm
04:23 PM 26.5°F-3.1°C 13.9°F-10.1°C 59% 6.0 mph SW9.7 kmh SW 18.0 mph29.0 kmh 30.13 in1020.3 mb 0.00 in0.0 mm 0.00 in0.0 mm 0.00 in0.0 mm
04:28 PM 26.4°F-3.1°C 13.8°F-10.1°C 59% 7.0 mph SW11.3 kmh SW 18.0 mph29.0 kmh 30.13 in1020.3 mb 0.00 in0.0 mm 0.00 in0.0 mm 0.00 in0.0 mm
04:33 PM 26.4°F-3.1°C 13.8°F-10.1°C 59% 13.0 mph SW20.9 kmh SW 24.0 mph38.6 kmh 30.13 in1020.3 mb 0.00 in0.0 mm 0.00 in0.0 mm 0.00 in0.0 mm
04:38 PM 26.4°F-3.1°C 13.8°F-10.1°C 59% 4.0 mph SW6.4 kmh SW 24.0 mph38.6 kmh 30.13 in1020.3 mb 0.00 in0.0 mm 0.00 in0.0 mm 0.00 in0.0 mm
04:43 PM 26.4°F-3.1°C 13.8°F-10.1°C 59% 5.0 mph SSW8.0 kmh SSW 24.0 mph38.6 kmh 30.12 in1020.0 mb 0.00 in0.0 mm 0.00 in0.0 mm 0.00 in0.0 mm
04:48 PM 26.5°F-3.1°C 13.9°F-10.1°C 59% 17.0 mph S27.4 kmh S 24.0 mph38.6 kmh 30.12 in1020.0 mb 0.00 in0.0 mm 0.00 in0.0 mm 0.00 in0.0 mm
04:53 PM 26.4°F-3.1°C 13.8°F-10.1°C 59% 18.0 mph S29.0 kmh S 20.0 mph32.2 kmh 30.12 in1020.0 mb 0.00 in0.0 mm 0.00 in0.0 mm 0.00 in0.0 mm
04:58 PM 26.3°F-3.2°C 13.7°F-10.2°C 59% 8.0 mph SW12.9 kmh SW 26.0 mph41.8 kmh 30.12 in1020.0 mb 0.00 in0.0 mm 0.00 in0.0 mm 0.00 in0.0 mm
05:03 PM 26.3°F-3.2°C 13.7°F-10.2°C 59% 5.0 mph SW8.0 kmh SW 26.0 mph41.8 kmh 30.12 in1020.0 mb 0.00 in0.0 mm 0.00 in0.0 mm 0.00 in0.0 mm
05:08 PM 26.1°F-3.3°C 13.9°F-10.1°C 60% 5.0 mph SW8.0 kmh SW 26.0 mph41.8 kmh 30.12 in1020.0 mb 0.00 in0.0 mm 0.00 in0.0 mm 0.00 in0.0 mm
05:13 PM 26.1°F-3.3°C 13.9°F-10.1°C 60% 9.0 mph S14.5 kmh S 26.0 mph41.8 kmh 30.12 in1020.0 mb 0.00 in0.0 mm 0.00 in0.0 mm 0.00 in0.0 mm
05:18 PM 26.1°F-3.3°C 13.9°F-10.1°C 60% 7.0 mph SW11.3 kmh SW 22.0 mph35.4 kmh 30.13 in1020.3 mb 0.00 in0.0 mm 0.00 in0.0 mm 0.00 in0.0 mm
05:23 PM 26.0°F-3.3°C 13.8°F-10.1°C 60% 7.0 mph SW11.3 kmh SW 25.0 mph40.2 kmh 30.12 in1020.0 mb 0.00 in0.0 mm 0.00 in0.0 mm 0.00 in0.0 mm
05:28 PM 26.0°F-3.3°C 13.8°F-10.1°C 60% 5.0 mph SW8.0 kmh SW 25.0 mph40.2 kmh 30.13 in1020.3 mb 0.00 in0.0 mm 0.00 in0.0 mm 0.00 in0.0 mm
05:33 PM 26.0°F-3.3°C 13.8°F-10.1°C 60% 5.0 mph SW8.0 kmh SW 25.0 mph40.2 kmh 30.13 in1020.3 mb 0.00 in0.0 mm 0.00 in0.0 mm 0.00 in0.0 mm
05:38 PM 26.0°F-3.3°C 13.8°F-10.1°C 60% 4.0 mph SW6.4 kmh SW 25.0 mph40.2 kmh 30.13 in1020.3 mb 0.00 in0.0 mm 0.00 in0.0 mm 0.00 in0.0 mm
05:43 PM 26.1°F-3.3°C 13.9°F-10.1°C 60% 13.0 mph S20.9 kmh S 13.0 mph20.9 kmh 30.12 in1020.0 mb 0.00 in0.0 mm 0.00 in0.0 mm 0.00 in0.0 mm
05:48 PM 26.2°F-3.2°C 14.0°F-10.0°C 60% 6.0 mph SSW9.7 kmh SSW 20.0 mph32.2 kmh 30.12 in1020.0 mb 0.00 in0.0 mm 0.00 in0.0 mm 0.00 in0.0 mm
05:53 PM 26.3°F-3.2°C 14.1°F-9.9°C 60% 12.0 mph W19.3 kmh W 23.0 mph37.0 kmh 30.11 in1019.6 mb 0.00 in0.0 mm 0.00 in0.0 mm 0.00 in0.0 mm
05:58 PM 26.3°F-3.2°C 14.1°F-9.9°C 60% 12.0 mph S19.3 kmh S 23.0 mph37.0 kmh 30.11 in1019.6 mb 0.00 in0.0 mm 0.00 in0.0 mm 0.00 in0.0 mm
06:03 PM 26.3°F-3.2°C 14.1°F-9.9°C 60% 6.0 mph SSW9.7 kmh SSW 23.0 mph37.0 kmh 30.11 in1019.6 mb 0.00 in0.0 mm 0.00 in0.0 mm 0.00 in0.0 mm
06:08 PM 26.2°F-3.2°C 14.0°F-10.0°C 60% 8.0 mph S12.9 kmh S 23.0 mph37.0 kmh 30.12 in1020.0 mb 0.00 in0.0 mm 0.00 in0.0 mm 0.00 in0.0 mm
06:13 PM 26.2°F-3.2°C 14.0°F-10.0°C 60% 7.0 mph SW11.3 kmh SW 20.0 mph32.2 kmh 30.12 in1020.0 mb 0.00 in0.0 mm 0.00 in0.0 mm 0.00 in0.0 mm
06:18 PM 26.1°F-3.3°C 13.9°F-10.1°C 60% 7.0 mph S11.3 kmh S 20.0 mph32.2 kmh 30.12 in1020.0 mb 0.00 in0.0 mm 0.00 in0.0 mm 0.00 in0.0 mm
06:23 PM 26.1°F-3.3°C 13.9°F-10.1°C 60% 17.0 mph S27.4 kmh S 23.0 mph37.0 kmh 30.12 in1020.0 mb 0.00 in0.0 mm 0.00 in0.0 mm 0.00 in0.0 mm
06:28 PM 26.0°F-3.3°C 13.8°F-10.1°C 60% 7.0 mph SSW11.3 kmh SSW 23.0 mph37.0 kmh 30.12 in1020.0 mb 0.00 in0.0 mm 0.00 in0.0 mm 0.00 in0.0 mm
06:33 PM 25.9°F-3.4°C 13.7°F-10.2°C 60% 5.0 mph WSW8.0 kmh WSW 23.0 mph37.0 kmh 30.11 in1019.6 mb 0.00 in0.0 mm 0.00 in0.0 mm 0.00 in0.0 mm
06:38 PM 25.8°F-3.4°C 14.0°F-10.0°C 61% 7.0 mph SW11.3 kmh SW 23.0 mph37.0 kmh 30.11 in1019.6 mb 0.00 in0.0 mm 0.00 in0.0 mm 0.00 in0.0 mm
06:43 PM 25.7°F-3.5°C 13.9°F-10.1°C 61% 8.0 mph SW12.9 kmh SW 15.0 mph24.1 kmh 30.12 in1020.0 mb 0.00 in0.0 mm 0.00 in0.0 mm 0.00 in0.0 mm
06:48 PM 25.7°F-3.5°C 13.9°F-10.1°C 61% 10.0 mph SW16.1 kmh SW 18.0 mph29.0 kmh 30.12 in1020.0 mb 0.00 in0.0 mm 0.00 in0.0 mm 0.00 in0.0 mm
06:53 PM 25.7°F-3.5°C 13.9°F-10.1°C 61% 10.0 mph WSW16.1 kmh WSW 18.0 mph29.0 kmh 30.12 in1020.0 mb 0.00 in0.0 mm 0.00 in0.0 mm 0.00 in0.0 mm
06:58 PM 25.8°F-3.4°C 14.0°F-10.0°C 61% 8.0 mph SW12.9 kmh SW 20.0 mph32.2 kmh 30.12 in1020.0 mb 0.00 in0.0 mm 0.00 in0.0 mm 0.00 in0.0 mm
07:03 PM 25.9°F-3.4°C 14.1°F-9.9°C 61% 7.0 mph SW11.3 kmh SW 20.0 mph32.2 kmh 30.11 in1019.6 mb 0.00 in0.0 mm 0.00 in0.0 mm 0.00 in0.0 mm
07:08 PM 26.0°F-3.3°C 14.2°F-9.9°C 61% 8.0 mph SW12.9 kmh SW 20.0 mph32.2 kmh 30.11 in1019.6 mb 0.00 in0.0 mm 0.00 in0.0 mm 0.00 in0.0 mm
07:13 PM 26.0°F-3.3°C 14.2°F-9.9°C 61% 5.0 mph SW8.0 kmh SW 20.0 mph32.2 kmh 30.12 in1020.0 mb 0.00 in0.0 mm 0.00 in0.0 mm 0.00 in0.0 mm
07:18 PM 26.1°F-3.3°C 14.3°F-9.8°C 61% 6.0 mph WSW9.7 kmh WSW 22.0 mph35.4 kmh 30.12 in1020.0 mb 0.00 in0.0 mm 0.00 in0.0 mm 0.00 in0.0 mm
07:23 PM 26.2°F-3.2°C 14.4°F-9.8°C 61% 12.0 mph SSW19.3 kmh SSW 22.0 mph35.4 kmh 30.12 in1020.0 mb 0.00 in0.0 mm 0.00 in0.0 mm 0.00 in0.0 mm
07:28 PM 26.3°F-3.2°C 14.5°F-9.7°C 61% 6.0 mph SW9.7 kmh SW 22.0 mph35.4 kmh 30.12 in1020.0 mb 0.00 in0.0 mm 0.00 in0.0 mm 0.00 in0.0 mm
07:33 PM 26.4°F-3.1°C 14.2°F-9.9°C 60% 17.0 mph SSW27.4 kmh SSW 22.0 mph35.4 kmh 30.12 in1020.0 mb 0.00 in0.0 mm 0.00 in0.0 mm 0.00 in0.0 mm
07:38 PM 26.4°F-3.1°C 14.2°F-9.9°C 60% 7.0 mph SW11.3 kmh SW 21.0 mph33.8 kmh 30.13 in1020.3 mb 0.00 in0.0 mm 0.00 in0.0 mm 0.00 in0.0 mm
07:43 PM 26.5°F-3.1°C 14.3°F-9.8°C 60% 11.0 mph S17.7 kmh S 24.0 mph38.6 kmh 30.12 in1020.0 mb 0.00 in0.0 mm 0.00 in0.0 mm 0.00 in0.0 mm
07:48 PM 26.7°F-2.9°C 14.5°F-9.7°C 60% 7.0 mph SW11.3 kmh SW 24.0 mph38.6 kmh 30.12 in1020.0 mb 0.00 in0.0 mm 0.00 in0.0 mm 0.00 in0.0 mm
07:53 PM 26.9°F-2.8°C 14.3°F-9.8°C 59% 5.0 mph SW8.0 kmh SW 24.0 mph38.6 kmh 30.12 in1020.0 mb 0.00 in0.0 mm 0.00 in0.0 mm 0.00 in0.0 mm
07:58 PM 27.0°F-2.8°C 14.4°F-9.8°C 59% 4.0 mph SW6.4 kmh SW 24.0 mph38.6 kmh 30.12 in1020.0 mb 0.00 in0.0 mm 0.00 in0.0 mm 0.00 in0.0 mm
08:03 PM 27.1°F-2.7°C 14.5°F-9.7°C 59% 6.0 mph SW9.7 kmh SW 18.0 mph29.0 kmh 30.12 in1020.0 mb 0.00 in0.0 mm 0.00 in0.0 mm 0.00 in0.0 mm
08:08 PM 27.1°F-2.7°C 14.5°F-9.7°C 59% 7.0 mph SSW11.3 kmh SSW 18.0 mph29.0 kmh 30.12 in1020.0 mb 0.00 in0.0 mm 0.00 in0.0 mm 0.00 in0.0 mm
08:13 PM 27.1°F-2.7°C 14.5°F-9.7°C 59% 7.0 mph SW11.3 kmh SW 25.0 mph40.2 kmh 30.12 in1020.0 mb 0.00 in0.0 mm 0.00 in0.0 mm 0.00 in0.0 mm
08:18 PM 27.2°F-2.7°C 14.6°F-9.7°C 59% 5.0 mph S8.0 kmh S 25.0 mph40.2 kmh 30.12 in1020.0 mb 0.00 in0.0 mm 0.00 in0.0 mm 0.00 in0.0 mm
08:23 PM 27.3°F-2.6°C 14.7°F-9.6°C 59% 7.0 mph SW11.3 kmh SW 25.0 mph40.2 kmh 30.12 in1020.0 mb 0.00 in0.0 mm 0.00 in0.0 mm 0.00 in0.0 mm
08:28 PM 27.4°F-2.6°C 14.8°F-9.6°C 59% 8.0 mph SSW12.9 kmh SSW 25.0 mph40.2 kmh 30.12 in1020.0 mb 0.00 in0.0 mm 0.00 in0.0 mm 0.00 in0.0 mm
08:33 PM 27.5°F-2.5°C 14.5°F-9.7°C 58% 9.0 mph SSW14.5 kmh SSW 18.0 mph29.0 kmh 30.11 in1019.6 mb 0.00 in0.0 mm 0.00 in0.0 mm 0.00 in0.0 mm
08:38 PM 27.6°F-2.4°C 14.5°F-9.7°C 58% 7.0 mph SSW11.3 kmh SSW 18.0 mph29.0 kmh 30.11 in1019.6 mb 0.00 in0.0 mm 0.00 in0.0 mm 0.00 in0.0 mm
08:43 PM 27.6°F-2.4°C 14.5°F-9.7°C 58% 8.0 mph SW12.9 kmh SW 18.0 mph29.0 kmh 30.11 in1019.6 mb 0.00 in0.0 mm 0.00 in0.0 mm 0.00 in0.0 mm
08:48 PM 27.7°F-2.4°C 14.6°F-9.7°C 58% 7.0 mph SW11.3 kmh SW 19.0 mph30.6 kmh 30.11 in1019.6 mb 0.00 in0.0 mm 0.00 in0.0 mm 0.00 in0.0 mm
08:53 PM 27.8°F-2.3°C 14.7°F-9.6°C 58% 6.0 mph SW9.7 kmh SW 23.0 mph37.0 kmh 30.11 in1019.6 mb 0.00 in0.0 mm 0.00 in0.0 mm 0.00 in0.0 mm
08:58 PM 27.8°F-2.3°C 14.7°F-9.6°C 58% 14.0 mph S22.5 kmh S 23.0 mph37.0 kmh 30.11 in1019.6 mb 0.00 in0.0 mm 0.00 in0.0 mm 0.00 in0.0 mm
09:03 PM 27.9°F-2.3°C 14.4°F-9.8°C 57% 5.0 mph SW8.0 kmh SW 23.0 mph37.0 kmh 30.11 in1019.6 mb 0.00 in0.0 mm 0.00 in0.0 mm 0.00 in0.0 mm
09:08 PM 27.8°F-2.3°C 14.7°F-9.6°C 58% 5.0 mph SW8.0 kmh SW 23.0 mph37.0 kmh 30.11 in1019.6 mb 0.00 in0.0 mm 0.00 in0.0 mm 0.00 in0.0 mm
09:13 PM 28.0°F-2.2°C 14.5°F-9.7°C 57% 5.0 mph WSW8.0 kmh WSW 24.0 mph38.6 kmh 30.11 in1019.6 mb 0.00 in0.0 mm 0.00 in0.0 mm 0.00 in0.0 mm
09:18 PM 28.0°F-2.2°C 14.9°F-9.5°C 58% 10.0 mph S16.1 kmh S 24.0 mph38.6 kmh 30.11 in1019.6 mb 0.00 in0.0 mm 0.00 in0.0 mm 0.00 in0.0 mm
09:23 PM 28.1°F-2.2°C 14.6°F-9.7°C 57% 21.0 mph S33.8 kmh S 24.0 mph38.6 kmh 30.10 in1019.3 mb 0.00 in0.0 mm 0.00 in0.0 mm 0.00 in0.0 mm
09:28 PM 28.2°F-2.1°C 14.7°F-9.6°C 57% 6.0 mph S9.7 kmh S 24.0 mph38.6 kmh 30.10 in1019.3 mb 0.00 in0.0 mm 0.00 in0.0 mm 0.00 in0.0 mm
09:33 PM 28.3°F-2.1°C 14.8°F-9.6°C 57% 6.0 mph SW9.7 kmh SW 21.0 mph33.8 kmh 30.10 in1019.3 mb 0.00 in0.0 mm 0.00 in0.0 mm 0.00 in0.0 mm
09:38 PM 28.3°F-2.1°C 14.8°F-9.6°C 57% 6.0 mph SW9.7 kmh SW 21.0 mph33.8 kmh 30.10 in1019.3 mb 0.00 in0.0 mm 0.00 in0.0 mm 0.00 in0.0 mm
09:43 PM 28.3°F-2.1°C 14.8°F-9.6°C 57% 7.0 mph SW11.3 kmh SW 18.0 mph29.0 kmh 30.10 in1019.3 mb 0.00 in0.0 mm 0.00 in0.0 mm 0.00 in0.0 mm
09:48 PM 28.4°F-2.0°C 14.9°F-9.5°C 57% 10.0 mph SSW16.1 kmh SSW 24.0 mph38.6 kmh 30.10 in1019.3 mb 0.00 in0.0 mm 0.00 in0.0 mm 0.00 in0.0 mm
09:53 PM 28.5°F-1.9°C 15.0°F-9.4°C 57% 9.0 mph SSW14.5 kmh SSW 24.0 mph38.6 kmh 30.10 in1019.3 mb 0.00 in0.0 mm 0.00 in0.0 mm 0.00 in0.0 mm
09:58 PM 28.5°F-1.9°C 15.0°F-9.4°C 57% 9.0 mph SW14.5 kmh SW 24.0 mph38.6 kmh 30.10 in1019.3 mb 0.00 in0.0 mm 0.00 in0.0 mm 0.00 in0.0 mm
10:03 PM 28.5°F-1.9°C 15.0°F-9.4°C 57% 7.0 mph SSW11.3 kmh SSW 24.0 mph38.6 kmh 30.10 in1019.3 mb 0.00 in0.0 mm 0.00 in0.0 mm 0.00 in0.0 mm
10:08 PM 28.5°F-1.9°C 15.0°F-9.4°C 57% 11.0 mph S17.7 kmh S 20.0 mph32.2 kmh 30.10 in1019.3 mb 0.00 in0.0 mm 0.00 in0.0 mm 0.00 in0.0 mm
10:13 PM 28.5°F-1.9°C 15.0°F-9.4°C 57% 8.0 mph SSW12.9 kmh SSW 22.0 mph35.4 kmh 30.10 in1019.3 mb 0.00 in0.0 mm 0.00 in0.0 mm 0.00 in0.0 mm
10:18 PM 28.5°F-1.9°C 15.0°F-9.4°C 57% 9.0 mph SSW14.5 kmh SSW 22.0 mph35.4 kmh 30.09 in1019.0 mb 0.00 in0.0 mm 0.00 in0.0 mm 0.00 in0.0 mm
10:23 PM 28.4°F-2.0°C 14.9°F-9.5°C 57% 8.0 mph SW12.9 kmh SW 22.0 mph35.4 kmh 30.09 in1019.0 mb 0.00 in0.0 mm 0.00 in0.0 mm 0.00 in0.0 mm
10:28 PM 28.4°F-2.0°C 14.9°F-9.5°C 57% 7.0 mph SW11.3 kmh SW 22.0 mph35.4 kmh 30.09 in1019.0 mb 0.00 in0.0 mm 0.00 in0.0 mm 0.00 in0.0 mm
10:33 PM 28.3°F-2.1°C 14.8°F-9.6°C 57% 12.0 mph S19.3 kmh S 18.0 mph29.0 kmh 30.09 in1019.0 mb 0.00 in0.0 mm 0.00 in0.0 mm 0.00 in0.0 mm
10:38 PM 28.3°F-2.1°C 14.8°F-9.6°C 57% 13.0 mph SW20.9 kmh SW 23.0 mph37.0 kmh 30.08 in1018.6 mb 0.00 in0.0 mm 0.00 in0.0 mm 0.00 in0.0 mm
10:43 PM 28.4°F-2.0°C 14.9°F-9.5°C 57% 12.0 mph SW19.3 kmh SW 23.0 mph37.0 kmh 30.08 in1018.6 mb 0.00 in0.0 mm 0.00 in0.0 mm 0.00 in0.0 mm
10:48 PM 28.4°F-2.0°C 14.9°F-9.5°C 57% 5.0 mph SW8.0 kmh SW 23.0 mph37.0 kmh 30.09 in1019.0 mb 0.00 in0.0 mm 0.00 in0.0 mm 0.00 in0.0 mm
10:53 PM 28.4°F-2.0°C 14.9°F-9.5°C 57% 12.0 mph SW19.3 kmh SW 23.0 mph37.0 kmh 30.08 in1018.6 mb 0.00 in0.0 mm 0.00 in0.0 mm 0.00 in0.0 mm
10:58 PM 28.4°F-2.0°C 15.3°F-9.3°C 58% 6.0 mph S9.7 kmh S 18.0 mph29.0 kmh 30.09 in1019.0 mb 0.00 in0.0 mm 0.00 in0.0 mm 0.00 in0.0 mm
11:03 PM 28.3°F-2.1°C 14.8°F-9.6°C 57% 7.0 mph SW11.3 kmh SW 18.0 mph29.0 kmh 30.09 in1019.0 mb 0.00 in0.0 mm 0.00 in0.0 mm 0.00 in0.0 mm
11:08 PM 28.3°F-2.1°C 15.2°F-9.3°C 58% 6.0 mph S9.7 kmh S 18.0 mph29.0 kmh 30.09 in1019.0 mb 0.00 in0.0 mm 0.00 in0.0 mm 0.00 in0.0 mm
11:13 PM 28.2°F-2.1°C 15.1°F-9.4°C 58% 6.0 mph SW9.7 kmh SW 18.0 mph29.0 kmh 30.09 in1019.0 mb 0.00 in0.0 mm 0.00 in0.0 mm 0.00 in0.0 mm
11:18 PM 28.1°F-2.2°C 15.0°F-9.4°C 58% 6.0 mph S9.7 kmh S 12.0 mph19.3 kmh 30.09 in1019.0 mb 0.00 in0.0 mm 0.00 in0.0 mm 0.00 in0.0 mm
11:23 PM 28.0°F-2.2°C 14.9°F-9.5°C 58% 5.0 mph SSW8.0 kmh SSW 12.0 mph19.3 kmh 30.09 in1019.0 mb 0.00 in0.0 mm 0.00 in0.0 mm 0.00 in0.0 mm
11:28 PM 27.9°F-2.3°C 14.8°F-9.6°C 58% 4.0 mph SW6.4 kmh SW 11.0 mph17.7 kmh 30.08 in1018.6 mb 0.00 in0.0 mm 0.00 in0.0 mm 0.00 in0.0 mm
11:33 PM 27.9°F-2.3°C 14.8°F-9.6°C 58% 3.0 mph SW4.8 kmh SW 14.0 mph22.5 kmh 30.08 in1018.6 mb 0.00 in0.0 mm 0.00 in0.0 mm 0.00 in0.0 mm
11:38 PM 27.9°F-2.3°C 14.8°F-9.6°C 58% 9.0 mph SW14.5 kmh SW 14.0 mph22.5 kmh 30.08 in1018.6 mb 0.00 in0.0 mm 0.00 in0.0 mm 0.00 in0.0 mm
11:43 PM 28.0°F-2.2°C 14.9°F-9.5°C 58% 8.0 mph SW12.9 kmh SW 14.0 mph22.5 kmh 30.09 in1019.0 mb 0.00 in0.0 mm 0.00 in0.0 mm 0.00 in0.0 mm
11:48 PM 28.1°F-2.2°C 15.0°F-9.4°C 58% 4.0 mph SW6.4 kmh SW 14.0 mph22.5 kmh 30.09 in1019.0 mb 0.00 in0.0 mm 0.00 in0.0 mm 0.00 in0.0 mm
11:53 PM 28.1°F-2.2°C 14.6°F-9.7°C 57% 9.0 mph SW14.5 kmh SW 13.0 mph20.9 kmh 30.08 in1018.6 mb 0.00 in0.0 mm 0.00 in0.0 mm 0.00 in0.0 mm
11:58 PM 28.1°F-2.2°C 14.6°F-9.7°C 57% 8.0 mph SW12.9 kmh SW 13.0 mph20.9 kmh 30.08 in1018.6 mb 0.00 in0.0 mm 0.00 in0.0 mm 0.00 in0.0 mm